Ana Sayfa
METAR-TAF:

METAR-TAF

Havaalanları :

Mount Pleasant Municipal Airport

Mount Pleasant, Michigan, Amerika Birleşik Devletleri

Enlem: 43-37N, Boylam: 084-44W, yükseklik: 230 m

Güncel hava durumu gözlemi

Rapor saat 07:16 UTC de 22 dakika önce yapıldı.
Rüzgar batıdan 8 kt
Sıcaklık -6°C
Nem 58%
Basınç 1015 hPa
Görüş mesafesi: 16.1 km
10000 ft yükseklikte parçalı bulutlu

METAR: KMOP 290716Z AUTO 28008KT 10SM SCT100 M06/M13 A2996 RMK AO2 T10631130

Saat: 02:38 (07:38 UTC)


TAF: eksik

4.000'den fazla havaalanı için hava durumu gözlemleri ve tahminleri (METAR ve TAF raporları).

Kullanılabilir istasyonlar harita üzerinde sarı ve kırmızı noktalarla gösterilir.

İstasyonun adını görmek için fareyi noktanın üzerinde gezdirin.

Sonrasında hava gözlem ve tahminlerini görmek için tıklayın.

Haritayı değiştirmek için: yaklaştırmak için siyah artı işaretli yeşil düğmeye ve uzaklaştırmak için de eksi işaretli düğmeye hızla tıklayın; bitişik haritalar için yeşil okları kullanın.


METAR-TAF: